Time;durP1;ratioP1;P1;durP2;ratioP2;P2;SDS_P1;SDS_P2;PMS_P1;PMS_P2;Temp;Humidity;BMP_temperature;BMP_pressure;BME280_temperature;BME280_humidity;BME280_pressure;Samples;Min_cycle;Max_cycle;Signal;HPM_P1;HPM_P2
2022/03/29 00:01:55;;;;;;;18.40;11.85;;;11.00;37.60;;;9.81;36.76;95839.91;5006346;28;20413;-63
2022/03/29 00:04:22;;;;;;;21.00;12.07;;;10.90;37.90;;;9.77;37.44;95833.41;5006790;28;20041;-63
2022/03/29 00:06:48;;;;;;;18.50;11.50;;;10.80;38.30;;;9.75;37.77;95830.16;5007650;28;20038;-64
2022/03/29 00:09:13;;;;;;;15.38;10.85;;;10.80;38.60;;;9.73;37.30;95832.16;5007938;28;20042;-63
2022/03/29 00:11:39;;;;;;;16.75;11.52;;;10.80;38.50;;;9.68;37.49;95828.47;5005688;28;20034;-64
2022/03/29 00:14:06;;;;;;;18.67;11.70;;;10.70;38.40;;;9.63;37.66;95823.78;5008573;28;20034;-64
2022/03/29 00:16:33;;;;;;;15.50;10.45;;;10.70;38.50;;;9.60;37.76;95826.78;5002689;28;20445;-64
2022/03/29 00:18:58;;;;;;;21.27;12.05;;;10.70;38.70;;;9.56;37.61;95825.56;4997229;28;20042;-64
2022/03/29 00:21:24;;;;;;;16.55;11.27;;;10.60;38.90;;;9.52;38.52;95825.13;5005890;28;20528;-64
2022/03/29 00:23:50;;;;;;;20.98;11.73;;;10.60;38.80;;;9.48;38.70;95813.34;5008775;28;20037;-64
2022/03/29 00:26:16;;;;;;;19.33;12.38;;;10.60;39.00;;;9.50;38.63;95821.03;5007142;28;20045;-62
2022/03/29 00:28:42;;;;;;;19.48;11.55;;;10.60;39.10;;;9.47;38.41;95816.16;5007433;28;20038;-63
2022/03/29 00:31:09;;;;;;;18.10;11.48;;;10.50;39.20;;;9.38;39.10;95812.06;5006543;28;20120;-63
2022/03/29 00:33:35;;;;;;;16.92;11.38;;;10.50;39.20;;;9.31;38.48;95811.19;5004274;28;20481;-64
2022/03/29 00:36:01;;;;;;;21.95;12.40;;;10.40;39.30;;;9.27;38.69;95807.31;4999584;28;20041;-64
2022/03/29 00:38:26;;;;;;;16.65;11.35;;;10.40;39.30;;;9.23;38.27;95800.81;5007726;28;20103;-64
2022/03/29 00:40:53;;;;;;;22.45;12.07;;;10.30;39.40;;;9.17;38.79;95797.13;5002737;28;20734;-64
2022/03/29 00:43:19;;;;;;;22.38;11.45;;;10.30;39.60;;;9.11;39.18;95788.19;5005125;28;20044;-64
2022/03/29 00:45:45;;;;;;;17.50;11.65;;;10.20;39.70;;;9.07;38.91;95789.56;5004332;28;20410;-64
2022/03/29 00:48:14;;;;;;;16.40;11.50;;;10.20;39.80;;;9.01;39.40;95795.53;5006463;28;20095;-63
2022/03/29 00:50:41;;;;;;;20.65;11.98;;;10.10;40.00;;;8.94;39.77;95789.44;4999924;28;20474;-64
2022/03/29 00:53:06;;;;;;;19.40;12.13;;;10.10;40.30;;;8.91;39.64;95784.56;5004570;28;20589;-64
2022/03/29 00:55:32;;;;;;;16.55;11.55;;;10.10;40.50;;;8.91;40.00;95784.56;4979590;28;20058;-64
2022/03/29 00:57:59;;;;;;;17.88;11.40;;;10.10;40.50;;;8.88;39.85;95782.31;4990091;28;20038;-64
2022/03/29 01:00:24;;;;;;;18.30;11.93;;;10.10;40.70;;;8.84;40.13;95784.50;5004459;28;20042;-63
2022/03/29 01:02:51;;;;;;;22.92;12.65;;;10.00;40.80;;;8.79;40.30;95778.97;5000886;28;20029;-63
2022/03/29 01:05:17;;;;;;;19.65;11.93;;;10.00;41.10;;;8.79;40.49;95775.53;5007544;28;20095;-63
2022/03/29 01:07:43;;;;;;;19.85;12.50;;;10.00;41.20;;;8.76;40.53;95776.72;5000591;28;20045;-63
2022/03/29 01:10:08;;;;;;;18.27;12.20;;;9.90;41.40;;;8.71;40.69;95783.53;4997621;28;20038;-63
2022/03/29 01:12:36;;;;;;;18.38;12.23;;;9.90;41.50;;;8.66;41.06;95775.41;5003301;28;20053;-64
2022/03/29 01:15:03;;;;;;;21.77;12.82;;;9.80;41.80;;;8.63;41.15;95765.31;5008282;28;20073;-63
2022/03/29 01:17:41;;;;;;;18.20;12.60;;;9.80;41.90;;;8.58;41.30;95766.63;5002471;28;20392;-63
2022/03/29 01:20:18;;;;;;;20.05;12.23;;;9.70;42.20;;;8.55;42.11;95767.00;5006162;28;20045;-63
2022/03/29 01:22:45;;;;;;;20.38;13.00;;;9.70;42.30;;;8.53;41.50;95763.75;5006668;28;20083;-63
2022/03/29 01:25:20;;;;;;;18.95;12.60;;;9.70;42.40;;;8.51;42.52;95763.13;5004652;28;20042;-64
2022/03/29 01:27:48;;;;;;;16.85;12.05;;;9.60;42.60;;;8.42;42.08;95759.00;5008083;28;20127;-64
2022/03/29 01:30:14;;;;;;;20.67;12.30;;;9.60;42.80;;;8.39;42.15;95748.91;5004941;28;20041;-63
2022/03/29 01:32:43;;;;;;;19.45;11.57;;;9.60;43.00;;;8.37;42.06;95748.25;5010438;28;20029;-63
2022/03/29 01:35:08;;;;;;;18.95;12.88;;;9.50;43.00;;;8.35;42.28;95747.63;5008850;28;20046;-64
2022/03/29 01:37:35;;;;;;;19.17;11.30;;;9.60;43.00;;;8.36;42.38;95736.13;5007267;28;20141;-63
2022/03/29 01:40:07;;;;;;;21.80;13.23;;;9.60;43.20;;;8.38;43.01;95736.78;5006372;28;20033;-64
2022/03/29 01:42:32;;;;;;;17.15;12.07;;;9.60;43.20;;;8.40;42.56;95742.66;5007080;28;20056;-64
2022/03/29 01:45:00;;;;;;;20.15;12.02;;;9.60;43.20;;;8.42;42.51;95738.03;5006423;28;20038;-63
2022/03/29 01:47:26;;;;;;;22.02;11.77;;;9.70;43.10;;;8.44;42.52;95730.81;5008459;28;20121;-63
2022/03/29 01:49:51;;;;;;;20.58;13.05;;;9.60;43.00;;;8.43;42.52;95725.75;5013292;28;20409;-63
2022/03/29 01:52:17;;;;;;;18.10;11.88;;;9.70;43.00;;;8.41;42.54;95720.69;5010196;28;20045;-63
2022/03/29 01:54:43;;;;;;;21.13;12.55;;;9.60;43.00;;;8.35;42.67;95718.78;5008940;28;20047;-63
2022/03/29 01:57:09;;;;;;;23.02;12.32;;;9.60;43.10;;;8.31;42.72;95712.28;5005320;28;20107;-63
2022/03/29 02:02:19;;;;;;;19.35;12.45;;;9.60;43.20;;;8.32;43.03;95711.28;5006185;28;20123;-63
2022/03/29 02:04:45;;;;;;;20.40;11.80;;;9.60;43.30;;;8.34;42.77;95708.50;5006099;28;20462;-63
2022/03/29 02:07:12;;;;;;;19.35;11.82;;;9.60;43.50;;;8.31;43.43;95709.66;5005423;28;20061;-63
2022/03/29 02:09:37;;;;;;;19.85;12.95;;;9.60;43.40;;;8.32;43.17;95692.94;5010440;28;20084;-64
2022/03/29 02:12:05;;;;;;;20.30;13.00;;;9.60;43.50;;;8.32;43.39;95694.75;5007298;28;20034;-64
2022/03/29 02:14:30;;;;;;;19.70;12.85;;;9.60;43.90;;;8.33;43.64;95701.59;5006943;28;20523;-63
2022/03/29 02:16:56;;;;;;;22.88;13.20;;;9.60;43.90;;;8.29;43.73;95693.31;5006847;28;20089;-63
2022/03/29 02:19:22;;;;;;;20.42;13.10;;;9.50;43.80;;;8.27;43.48;95690.06;5003914;28;20523;-63
2022/03/29 02:21:48;;;;;;;23.00;13.57;;;9.50;43.80;;;8.24;43.47;95687.81;5008894;28;20112;-64
2022/03/29 02:24:13;;;;;;;20.80;14.32;;;9.40;44.10;;;8.18;43.71;95688.56;5008173;28;20394;-63
2022/03/29 02:26:39;;;;;;;22.08;14.32;;;9.40;44.40;;;8.14;43.83;95676.78;5008549;28;20037;-63
2022/03/29 02:29:05;;;;;;;20.38;13.43;;;9.40;44.40;;;8.12;43.93;95681.41;5009783;28;20073;-63
2022/03/29 02:31:30;;;;;;;20.27;13.38;;;9.40;44.50;;;8.10;44.10;95678.16;5008113;28;20034;-63
2022/03/29 02:33:56;;;;;;;18.45;13.10;;;9.30;44.70;;;8.06;44.62;95676.91;5010888;28;20041;-63
2022/03/29 02:36:22;;;;;;;19.50;12.95;;;9.20;44.60;;;8.01;44.39;95674.03;5009205;28;20097;-64
2022/03/29 02:38:48;;;;;;;19.50;12.10;;;9.20;44.70;;;7.93;44.09;95670.53;5006011;28;20034;-64
2022/03/29 02:41:13;;;;;;;18.75;13.50;;;9.10;44.90;;;7.89;44.54;95664.00;5008313;28;20125;-63
2022/03/29 02:43:39;;;;;;;23.30;13.50;;;9.10;45.00;;;7.87;44.24;95663.38;5007944;28;20030;-63
2022/03/29 02:46:05;;;;;;;19.25;13.77;;;9.10;45.10;;;7.82;45.10;95668.38;5007447;28;20567;-63
2022/03/29 02:48:31;;;;;;;19.60;13.45;;;9.00;45.40;;;7.79;45.26;95666.13;5005915;28;20116;-63
2022/03/29 02:50:57;;;;;;;21.13;13.38;;;9.00;45.50;;;7.74;45.04;95665.84;5008357;28;20033;-63
2022/03/29 02:53:22;;;;;;;20.23;13.48;;;9.00;45.60;;;7.72;45.26;95661.78;5007209;28;20092;-63
2022/03/29 02:55:48;;;;;;;22.65;15.23;;;8.90;45.80;;;7.73;45.46;95659.00;5006449;28;20053;-63
2022/03/29 02:58:14;;;;;;;23.25;14.05;;;9.00;46.00;;;7.73;45.65;95659.00;5001842;28;20584;-64
2022/03/29 03:00:40;;;;;;;19.13;13.63;;;9.00;45.80;;;7.72;45.14;95654.75;5007125;28;20559;-63
2022/03/29 03:03:06;;;;;;;22.73;15.70;;;9.00;45.90;;;7.72;45.24;95646.91;5009148;28;20073;-63
2022/03/29 03:05:31;;;;;;;25.73;18.40;;;9.00;46.00;;;7.71;45.39;95650.50;5006668;28;20100;-63
2022/03/29 03:07:57;;;;;;;33.78;21.48;;;9.00;46.00;;;7.72;46.01;95652.13;5009579;28;20441;-63
2022/03/29 03:10:25;;;;;;;34.92;24.05;;;9.10;46.60;;;7.77;45.94;95649.78;5004902;28;20033;-63
2022/03/29 03:12:50;;;;;;;21.55;13.18;;;9.10;46.70;;;7.81;45.41;95651.03;5008086;28;20071;-64
2022/03/29 03:15:19;;;;;;;20.00;14.20;;;9.10;45.80;;;7.81;46.11;95645.78;5010614;28;20038;-63
2022/03/29 03:17:45;;;;;;;23.27;14.63;;;9.10;46.00;;;7.83;46.00;95649.03;5010060;28;20052;-63
2022/03/29 03:20:12;;;;;;;21.20;13.35;;;9.10;46.10;;;7.84;46.00;95652.47;5009820;28;20489;-63
2022/03/29 03:22:39;;;;;;;20.73;13.45;;;9.10;46.10;;;7.86;45.80;95648.66;5010052;28;20401;-63
2022/03/29 03:25:05;;;;;;;19.60;12.98;;;9.20;45.90;;;7.83;45.59;95646.41;5009734;28;20037;-63
2022/03/29 03:27:31;;;;;;;21.52;14.05;;;9.10;46.20;;;7.81;46.06;95645.78;5010511;28;20447;-65
2022/03/29 03:29:57;;;;;;;19.98;13.82;;;9.10;46.30;;;7.83;46.68;95638.56;4988961;28;20046;-64
2022/03/29 03:32:23;;;;;;;18.48;13.27;;;9.10;46.30;;;7.83;46.77;95648.22;4991162;28;20133;-65
2022/03/29 03:34:49;;;;;;;19.85;13.80;;;9.10;46.20;;;7.80;46.28;95649.41;5007279;28;20066;-65
2022/03/29 03:37:15;;;;;;;22.10;16.00;;;9.10;46.20;;;7.79;46.14;95632.09;5001996;28;20178;-64
2022/03/29 03:39:41;;;;;;;27.70;20.27;;;9.10;46.90;;;7.77;47.20;95638.50;5005491;28;20041;-63
2022/03/29 03:42:09;;;;;;;24.60;18.80;;;9.00;47.20;;;7.77;46.75;95628.84;5008227;28;20098;-66
2022/03/29 03:44:36;;;;;;;20.73;13.68;;;9.00;47.10;;;7.73;47.08;95626.78;5004215;28;20030;-65
2022/03/29 03:47:03;;;;;;;18.20;13.20;;;9.00;46.80;;;7.71;47.15;95619.09;5006418;28;20518;-64
2022/03/29 03:49:29;;;;;;;19.40;13.13;;;9.00;46.70;;;7.70;46.98;95612.25;5005169;28;20111;-63
2022/03/29 03:51:55;;;;;;;19.77;14.10;;;9.00;46.90;;;7.68;47.13;95614.19;5005223;28;20833;-64
2022/03/29 03:54:21;;;;;;;22.40;13.98;;;9.10;46.80;;;7.70;46.83;95617.47;5008417;28;20104;-63
2022/03/29 03:56:47;;;;;;;21.33;13.70;;;9.00;46.80;;;7.67;46.96;95607.34;5010572;28;20505;-63
2022/03/29 03:59:13;;;;;;;20.00;13.23;;;9.00;47.00;;;7.66;47.02;95610.97;5010045;28;20466;-63
2022/03/29 04:01:39;;;;;;;19.45;12.60;;;9.00;47.00;;;7.59;46.57;95603.03;5007997;28;20037;-63
2022/03/29 04:04:04;;;;;;;20.40;13.18;;;8.90;47.00;;;7.57;47.09;95598.97;5009805;28;20038;-63
2022/03/29 04:06:30;;;;;;;23.00;13.20;;;8.90;47.10;;;7.55;47.18;95598.34;5010199;28;20033;-64
2022/03/29 04:08:56;;;;;;;19.55;12.77;;;8.80;47.30;;;7.52;47.12;95601.34;5008375;28;20049;-63
2022/03/29 04:11:22;;;;;;;19.83;12.55;;;8.70;47.80;;;7.51;47.15;95597.09;5010710;28;20505;-64
2022/03/29 04:13:48;;;;;;;21.30;13.32;;;8.80;47.80;;;7.47;47.19;95591.41;5007570;28;20044;-65
2022/03/29 04:16:13;;;;;;;19.42;13.50;;;8.70;47.80;;;7.47;48.19;95595.81;5001968;28;20038;-64
2022/03/29 04:18:39;;;;;;;16.60;12.60;;;8.80;48.10;;;7.47;47.69;95593.19;5009051;28;20049;-64
2022/03/29 04:21:07;;;;;;;15.88;12.27;;;8.80;48.10;;;7.44;47.64;95591.75;5010583;28;20044;-63
2022/03/29 04:23:35;;;;;;;20.67;13.95;;;8.80;48.30;;;7.41;48.06;95586.91;5008280;28;20042;-64
2022/03/29 04:26:02;;;;;;;24.00;14.73;;;8.70;48.30;;;7.35;47.87;95577.97;5010110;28;20129;-64
2022/03/29 04:28:27;;;;;;;22.98;14.43;;;8.70;48.50;;;7.33;48.22;95574.72;5006646;28;20030;-64
2022/03/29 04:30:55;;;;;;;23.20;15.95;;;8.70;48.40;;;7.32;48.48;95573.09;5002148;28;20048;-64
2022/03/29 04:33:22;;;;;;;25.75;17.02;;;8.70;48.60;;;7.35;48.29;95572.75;5007659;28;20059;-64
2022/03/29 04:35:47;;;;;;;21.73;15.48;;;8.80;49.20;;;7.35;48.58;95564.91;5007004;28;20041;-64
2022/03/29 04:38:13;;;;;;;22.58;16.23;;;8.80;49.20;;;7.37;49.32;95570.75;5008255;28;20045;-63
2022/03/29 04:40:39;;;;;;;19.75;14.02;;;8.80;49.40;;;7.38;48.86;95561.09;5009465;28;20406;-63
2022/03/29 04:43:04;;;;;;;18.08;12.60;;;8.80;49.30;;;7.35;50.03;95570.13;5007664;28;20050;-63
2022/03/29 04:45:30;;;;;;;18.80;12.40;;;8.80;49.60;;;7.34;49.38;95570.31;5009153;28;20038;-66
2022/03/29 04:47:56;;;;;;;19.50;14.48;;;8.80;49.60;;;7.33;49.90;95574.72;5008511;28;20535;-66
2022/03/29 04:50:22;;;;;;;25.30;15.35;;;8.80;49.80;;;7.33;50.43;95563.44;5009396;28;20456;-66
2022/03/29 04:52:48;;;;;;;21.15;14.95;;;8.70;49.80;;;7.33;49.60;95566.88;5007437;28;20026;-67
2022/03/29 04:55:15;;;;;;;26.52;14.40;;;8.70;49.80;;;7.33;50.33;95564.25;5000969;28;20103;-66
2022/03/29 04:57:42;;;;;;;20.00;14.75;;;8.70;49.80;;;7.31;50.29;95557.59;5007839;28;20049;-68
2022/03/29 05:00:12;;;;;;;18.65;13.82;;;8.60;50.00;;;7.28;50.23;95555.34;5009890;28;20402;-64
2022/03/29 05:02:39;;;;;;;18.75;14.18;;;8.60;49.80;;;7.25;50.50;95558.34;5004960;28;20119;-67
2022/03/29 05:05:06;;;;;;;20.30;13.88;;;8.60;50.30;;;7.21;50.42;95560.47;5015576;28;20053;-65
2022/03/29 05:07:32;;;;;;;19.42;13.90;;;8.60;50.10;;;7.17;50.86;95558.41;5007426;28;20157;-66
2022/03/29 05:09:57;;;;;;;21.08;13.25;;;8.50;50.30;;;7.15;50.81;95548.13;5009222;28;20034;-66
2022/03/29 05:12:24;;;;;;;18.45;13.35;;;8.50;50.10;;;7.14;50.96;95549.13;5004383;28;20509;-67
2022/03/29 05:14:49;;;;;;;19.85;13.20;;;8.50;50.10;;;7.13;49.96;95549.31;5012698;28;20041;-68
2022/03/29 05:17:15;;;;;;;17.95;12.48;;;8.50;50.30;;;7.12;51.23;95556.34;5006340;28;20528;-69
2022/03/29 05:19:41;;;;;;;21.15;11.90;;;8.50;50.40;;;7.12;50.04;95545.06;5009531;28;20038;-67
2022/03/29 05:22:07;;;;;;;18.95;12.32;;;8.60;50.40;;;7.09;50.47;95543.63;5006755;28;20046;-65
2022/03/29 05:24:33;;;;;;;23.38;13.98;;;8.50;50.80;;;7.10;50.92;95547.06;5004015;28;20042;-67
2022/03/29 05:26:59;;;;;;;19.00;12.40;;;8.50;51.00;;;7.10;50.80;95545.25;5003112;28;20236;-66
2022/03/29 05:29:29;;;;;;;17.92;12.15;;;8.60;51.10;;;7.12;50.97;95545.88;5013968;28;20030;-66
2022/03/29 05:31:56;;;;;;;19.02;11.93;;;8.60;51.30;;;7.13;51.21;95542.25;5007828;28;20038;-66
2022/03/29 05:34:22;;;;;;;19.52;12.13;;;8.60;51.00;;;7.12;50.66;95543.25;5001781;28;20030;-66
2022/03/29 05:36:47;;;;;;;22.20;12.23;;;8.60;51.00;;;7.15;52.22;95542.09;5006470;28;20042;-67
2022/03/29 05:39:13;;;;;;;18.15;12.77;;;8.70;51.30;;;7.17;51.82;95546.13;5003930;28;20038;-69
2022/03/29 05:41:40;;;;;;;18.58;12.65;;;8.70;51.10;;;7.18;51.76;95542.53;5007447;28;20133;-68
2022/03/29 05:44:06;;;;;;;17.85;12.65;;;8.70;50.80;;;7.14;52.23;95549.13;5002044;28;20033;-67
2022/03/29 05:49:16;;;;;;;17.70;12.32;;;8.60;51.20;;;7.12;52.48;95540.66;5008838;28;20411;-67
2022/03/29 05:51:42;;;;;;;17.35;12.57;;;8.70;51.20;;;7.15;51.91;95535.03;5003560;28;20030;-67
2022/03/29 05:54:08;;;;;;;19.95;12.52;;;8.70;51.30;;;7.21;51.94;95534.31;5003326;28;20096;-67
2022/03/29 05:56:33;;;;;;;20.05;12.82;;;8.80;51.10;;;7.25;52.46;95546.06;5013693;28;20049;-68
2022/03/29 05:59:00;;;;;;;18.30;12.38;;;8.90;51.00;;;7.33;52.57;95548.56;5008221;28;20092;-68
2022/03/29 06:01:25;;;;;;;28.50;18.80;;;9.10;50.60;;;7.38;52.64;95548.03;5027941;28;20034;-67
2022/03/29 06:03:51;;;;;;;46.47;27.55;;;9.10;51.00;;;7.45;52.33;95546.28;5019765;28;20054;-69
2022/03/29 06:06:17;;;;;;;37.88;22.63;;;9.20;51.10;;;7.51;52.97;95550.81;5007969;28;20068;-66
2022/03/29 06:08:43;;;;;;;40.22;27.55;;;9.20;51.20;;;7.56;52.18;95548.44;5006999;28;20497;-68
2022/03/29 06:11:08;;;;;;;27.15;17.90;;;9.40;51.00;;;7.63;52.71;95551.13;5009647;28;20124;-67
2022/03/29 06:13:34;;;;;;;23.30;16.95;;;9.40;51.00;;;7.67;52.82;95544.53;5006300;28;20038;-67
2022/03/29 06:16:00;;;;;;;19.05;13.55;;;9.40;50.10;;;7.70;51.77;95552.03;5008152;28;20456;-68
2022/03/29 06:18:26;;;;;;;18.05;11.85;;;9.40;49.70;;;7.75;51.72;95554.91;5025312;28;20034;-68
2022/03/29 06:20:52;;;;;;;23.13;13.05;;;9.60;49.80;;;7.79;51.77;95550.91;5022269;28;20041;-68
2022/03/29 06:23:18;;;;;;;17.20;11.75;;;9.60;49.30;;;7.83;52.00;95554.78;5011627;28;20060;-67
2022/03/29 06:25:44;;;;;;;14.80;11.90;;;9.60;49.00;;;7.90;51.73;95554.84;5011646;28;20057;-67
2022/03/29 06:28:10;;;;;;;19.52;12.00;;;9.70;49.20;;;7.99;51.60;95548.50;5011356;28;20040;-68
2022/03/29 06:30:38;;;;;;;18.00;12.05;;;10.00;48.50;;;8.06;51.50;95551.19;5010734;28;20127;-67
2022/03/29 06:33:04;;;;;;;15.73;11.85;;;10.10;48.20;;;8.14;51.21;95551.06;5007586;28;20041;-68
2022/03/29 06:35:31;;;;;;;20.30;11.95;;;10.20;47.90;;;8.19;50.78;95549.53;5010164;28;20030;-69
2022/03/29 06:37:58;;;;;;;20.50;12.25;;;10.20;47.10;;;8.27;50.65;95540.72;5011042;28;20137;-68
2022/03/29 06:40:26;;;;;;;27.25;12.57;;;10.40;46.80;;;8.32;50.67;95554.06;5009533;28;20037;-66
2022/03/29 06:42:52;;;;;;;17.70;11.75;;;10.40;46.80;;;8.39;50.60;95541.88;5003317;28;20126;-67
2022/03/29 06:45:18;;;;;;;18.60;11.88;;;10.60;46.90;;;8.50;50.94;95543.97;5010360;28;20056;-67
2022/03/29 06:47:44;;;;;;;22.75;12.93;;;10.80;47.00;;;8.64;51.31;95546.69;5008098;28;20025;-67
2022/03/29 06:50:10;;;;;;;22.35;12.27;;;10.80;46.60;;;8.71;50.22;95537.06;5010658;28;20358;-68
2022/03/29 06:52:41;;;;;;;18.85;11.38;;;10.90;46.40;;;8.80;50.36;95534.09;5006037;28;20100;-68
2022/03/29 06:55:08;;;;;;;21.85;11.70;;;11.00;46.00;;;8.89;49.75;95534.78;5008734;28;20061;-62
2022/03/29 06:57:34;;;;;;;19.98;11.57;;;11.00;45.80;;;9.00;49.30;95542.09;5008327;28;20042;-68
2022/03/29 07:00:00;;;;;;;21.05;11.43;;;11.20;45.40;;;9.12;49.87;95530.06;5014863;28;20191;-68
2022/03/29 07:02:26;;;;;;;20.10;11.85;;;11.40;45.10;;;9.19;49.76;95533.53;5014932;28;20037;-68
2022/03/29 07:04:52;;;;;;;18.15;12.05;;;11.40;45.00;;;9.31;49.23;95533.00;5013461;28;20420;-69
2022/03/29 07:07:17;;;;;;;20.63;12.80;;;11.60;44.70;;;9.41;48.36;95534.25;5016073;28;20026;-68
2022/03/29 07:12:30;;;;;;;18.55;11.85;;;12.10;43.90;;;9.75;48.76;95529.94;5008477;28;20056;-69
2022/03/29 07:14:59;;;;;;;24.17;12.40;;;12.40;43.70;;;9.96;48.28;95532.44;5009392;28;20049;-68
2022/03/29 07:17:25;;;;;;;16.40;10.90;;;12.70;42.90;;;10.14;49.42;95527.38;5011434;28;20128;-69
2022/03/29 07:19:51;;;;;;;25.52;11.80;;;13.10;42.40;;;10.35;47.34;95529.06;5010319;28;20034;-69
2022/03/29 07:22:18;;;;;;;19.23;11.85;;;13.30;41.70;;;10.57;48.47;95513.09;5006745;28;20038;-68
2022/03/29 07:24:44;;;;;;;18.90;12.40;;;13.60;41.20;;;10.78;46.37;95514.69;5015772;28;20040;-68
2022/03/29 07:27:09;;;;;;;21.08;11.98;;;13.80;40.20;;;10.98;47.07;95513.66;5010512;28;20042;-68
2022/03/29 07:29:36;;;;;;;17.80;11.40;;;14.00;40.10;;;11.22;47.31;95512.19;5013571;28;20064;-69
2022/03/29 07:32:02;;;;;;;20.23;11.50;;;14.40;39.70;;;11.47;46.00;95520.19;5010685;28;20049;-71
2022/03/29 07:34:29;;;;;;;19.50;12.20;;;14.60;39.20;;;11.72;45.86;95516.84;5006314;28;20103;-70
2022/03/29 07:36:56;;;;;;;19.48;12.15;;;14.80;38.50;;;11.95;45.43;95519.78;5009127;28;20129;-68
2022/03/29 07:39:22;;;;;;;18.58;12.45;;;15.10;37.60;;;12.16;44.05;95516.84;5003910;28;20042;-69
2022/03/29 07:41:48;;;;;;;16.15;11.80;;;15.30;37.20;;;12.35;44.67;95512.44;5009602;28;20068;-69
2022/03/29 07:44:14;;;;;;;19.67;12.93;;;15.50;37.30;;;12.54;43.77;95510.69;5008103;28;20034;-68
2022/03/29 07:46:39;;;;;;;17.13;11.95;;;15.70;36.90;;;12.71;43.63;95517.03;5010460;28;20045;-67
2022/03/29 07:49:05;;;;;;;20.25;12.45;;;15.90;36.70;;;12.90;43.91;95509.97;5008599;28;20038;-69
2022/03/29 07:51:31;;;;;;;16.63;11.90;;;16.10;36.50;;;13.10;43.47;95505.28;5008495;28;20133;-69
2022/03/29 07:53:56;;;;;;;21.25;11.65;;;16.40;36.10;;;13.27;43.13;95500.28;5021272;28;20124;-68
2022/03/29 07:56:22;;;;;;;19.45;11.38;;;16.50;36.00;;;13.43;42.76;95497.06;5009021;28;20037;-69
2022/03/29 07:58:48;;;;;;;19.70;11.95;;;16.50;35.40;;;13.54;41.73;95499.97;5006492;28;20041;-69
2022/03/29 08:01:13;;;;;;;18.83;11.25;;;16.50;33.90;;;13.64;40.89;95495.78;5009716;28;20429;-68
2022/03/29 08:03:39;;;;;;;16.20;11.27;;;16.60;33.70;;;13.76;40.64;95493.97;5014163;28;20030;-69
2022/03/29 08:06:05;;;;;;;15.73;11.15;;;16.80;33.40;;;13.91;39.77;95490.94;5009053;28;20064;-67
2022/03/29 08:08:32;;;;;;;18.35;11.43;;;16.90;33.60;;;14.06;39.61;95494.00;5004805;28;20121;-71
2022/03/29 08:10:57;;;;;;;16.90;11.43;;;17.00;32.90;;;14.16;38.73;95492.63;5010314;28;20096;-70
2022/03/29 08:13:24;;;;;;;20.48;12.25;;;17.20;32.80;;;14.32;38.67;95489.34;5008578;28;20037;-67
2022/03/29 08:15:53;;;;;;;20.73;12.05;;;17.50;32.50;;;14.50;38.32;95483.22;5007161;28;20033;-68
2022/03/29 08:18:19;;;;;;;16.00;11.38;;;17.60;32.00;;;14.70;38.05;95473.88;5009181;28;20537;-70
2022/03/29 08:20:45;;;;;;;17.13;11.88;;;18.10;32.20;;;14.93;39.16;95472.28;5008532;28;20041;-70
2022/03/29 08:23:12;;;;;;;18.35;12.52;;;18.30;31.30;;;15.14;38.53;95473.53;5008323;28;20191;-70
2022/03/29 08:25:39;;;;;;;19.02;12.27;;;18.50;30.50;;;15.39;38.40;95481.19;5006469;28;20038;-68
2022/03/29 08:28:05;;;;;;;18.20;11.25;;;18.80;31.20;;;15.60;38.13;95478.75;5009889;28;20037;-69
2022/03/29 08:30:31;;;;;;;20.25;11.60;;;19.10;30.60;;;15.84;36.57;95484.81;5013565;28;20033;-68
2022/03/29 08:32:58;;;;;;;19.08;11.48;;;19.40;29.90;;;16.09;35.92;95470.41;5013954;28;20048;-68
2022/03/29 08:35:24;;;;;;;15.15;11.55;;;19.60;28.90;;;16.31;35.75;95473.97;5007846;28;20037;-69
2022/03/29 08:37:50;;;;;;;19.35;11.60;;;20.10;29.20;;;16.54;35.78;95473.81;5009749;28;20497;-67
2022/03/29 08:40:19;;;;;;;20.63;12.30;;;20.40;28.70;;;16.79;35.55;95470.78;5007939;28;20329;-69
2022/03/29 08:42:46;;;;;;;24.50;11.73;;;20.50;28.20;;;16.93;35.24;95473.88;5014714;28;20081;-68
2022/03/29 08:45:16;;;;;;;23.45;11.70;;;20.50;28.90;;;17.14;34.63;95470.47;5008405;28;20045;-69
2022/03/29 08:47:44;;;;;;;17.05;12.20;;;20.80;28.00;;;17.43;34.85;95463.16;5024925;28;20494;-69
2022/03/29 08:50:12;;;;;;;18.90;11.52;;;21.40;27.90;;;17.69;34.88;95469.59;5008761;28;20038;-69
2022/03/29 08:52:39;;;;;;;20.50;10.90;;;21.80;27.70;;;17.94;34.46;95466.41;5009085;28;20037;-68
2022/03/29 08:55:06;;;;;;;16.50;11.95;;;21.80;27.30;;;18.18;34.06;95458.94;4995121;28;20050;-67
2022/03/29 08:57:32;;;;;;;18.65;12.00;;;21.80;26.60;;;18.42;33.90;95455.97;5009793;28;20030;-67
2022/03/29 08:59:58;;;;;;;16.55;11.57;;;22.20;26.10;;;18.68;33.75;95455.13;5003121;28;20060;-67
2022/03/29 09:02:25;;;;;;;19.08;11.52;;;22.70;26.00;;;18.92;33.76;95450.22;5009778;28;20025;-70
2022/03/29 09:05:14;;;;;;;18.17;12.25;;;22.80;26.00;;;19.25;30.99;95447.22;5007825;28;20033;-67
2022/03/29 09:07:54;;;;;;;15.10;11.15;;;22.90;25.70;;;19.52;30.54;95444.41;5014093;28;20052;-69
2022/03/29 09:10:38;;;;;;;24.52;12.68;;;23.20;25.50;;;19.78;31.64;95445.34;5002981;28;20072;-69
2022/03/29 09:13:26;;;;;;;21.02;11.48;;;23.60;24.90;;;20.12;30.30;95448.34;5007710;28;20100;-68
2022/03/29 09:16:00;;;;;;;17.48;11.43;;;23.80;23.30;;;20.37;29.98;95444.13;5005979;28;20092;-68
2022/03/29 09:18:26;;;;;;;19.10;11.40;;;24.20;23.60;;;20.70;30.25;95438.25;5022337;28;20034;-67
2022/03/29 09:21:15;;;;;;;20.77;11.60;;;24.60;23.10;;;21.03;28.84;95441.41;5009090;28;20121;-67
2022/03/29 09:23:42;;;;;;;21.17;11.50;;;24.90;23.40;;;21.23;29.24;95430.66;5013363;28;20271;-67
2022/03/29 09:26:27;;;;;;;16.52;11.30;;;24.60;22.90;;;21.53;27.86;95434.34;5006004;28;20493;-67
2022/03/29 09:28:53;;;;;;;15.18;11.23;;;25.50;22.60;;;21.76;28.73;95428.34;4990816;28;20035;-66
2022/03/29 09:31:22;;;;;;;16.42;11.35;;;25.50;21.40;;;21.96;28.53;95438.97;5006764;28;20030;-67
2022/03/29 09:33:48;;;;;;;15.98;11.25;;;25.60;22.10;;;22.21;28.19;95431.88;5002788;28;20441;-66
2022/03/29 09:36:16;;;;;;;24.58;12.65;;;25.90;21.30;;;22.34;27.15;95428.56;5007360;28;20061;-66
2022/03/29 09:38:44;;;;;;;20.95;11.88;;;25.70;21.40;;;22.53;27.37;95423.31;4999391;28;20044;-66
2022/03/29 09:41:26;;;;;;;16.67;10.90;;;26.00;21.80;;;22.73;26.51;95409.75;5005767;28;20065;-66
2022/03/29 09:44:00;;;;;;;18.15;10.52;;;26.20;21.60;;;22.77;26.37;95413.44;5001727;28;20060;-67
2022/03/29 09:46:26;;;;;;;21.90;12.38;;;25.70;21.30;;;22.80;27.06;95409.41;5008118;28;20105;-66
2022/03/29 09:49:00;;;;;;;19.70;11.43;;;26.00;22.00;;;22.94;27.45;95402.34;5007442;28;20050;-67
2022/03/29 09:51:29;;;;;;;15.00;11.07;;;26.30;22.50;;;23.11;26.62;95400.00;4992140;28;20050;-68
2022/03/29 09:53:57;;;;;;;15.90;10.70;;;26.40;21.20;;;23.26;26.02;95399.03;5010701;28;20044;-68
2022/03/29 09:56:26;;;;;;;15.20;11.27;;;26.60;21.20;;;23.32;26.12;95394.44;5011779;28;20037;-67
2022/03/29 09:59:09;;;;;;;16.95;11.43;;;26.10;20.80;;;23.17;25.11;95393.50;5011024;28;20414;-67
2022/03/29 10:01:57;;;;;;;19.60;11.68;;;25.60;21.00;;;23.14;25.18;95391.41;5004055;28;20061;-67
2022/03/29 10:04:25;;;;;;;15.52;11.50;;;25.90;21.50;;;23.18;25.24;95389.72;5008851;28;20092;-66
2022/03/29 10:06:54;;;;;;;17.08;11.00;;;26.10;20.90;;;23.20;25.86;95386.75;5011092;28;20355;-66
2022/03/29 10:09:27;;;;;;;13.38;10.65;;;26.00;20.90;;;23.00;25.27;95384.31;5011502;28;20037;-65
2022/03/29 10:12:04;;;;;;;17.63;11.65;;;25.60;21.70;;;23.07;25.40;95372.13;5006000;28;20041;-62
2022/03/29 10:14:44;;;;;;;14.63;10.80;;;26.10;21.30;;;23.22;24.63;95376.53;5008044;28;20354;-62
2022/03/29 10:17:11;;;;;;;22.25;11.13;;;26.00;20.60;;;23.36;25.27;95373.97;5013530;28;20133;-63
2022/03/29 10:19:37;;;;;;;15.43;11.32;;;26.30;20.60;;;23.40;25.75;95369.63;5005443;28;20449;-66
2022/03/29 10:22:03;;;;;;;15.45;11.20;;;25.80;21.20;;;23.31;25.18;95368.66;5007781;28;20142;-65